Terminal Aerodrome Forecast
Issued by NWS Charleston, WV

Current Version | Previous Version | Graphics & Text | Print | Product List | Glossary On
Versions: 1 2 3 4 5 6 7 8 9 10 11 12 13 14 15 16 17 18 19 20 21 22 23 24
000
FTUS41 KRLX 221500 AAB
TAFHTS
TAF AMD
KHTS 221505Z 2215/2312 30010KT P6SM SHRA BKN020 OVC035
     FM221700 27012G21KT P6SM BKN035
     FM222000 27013G24KT P6SM SCT200
     FM230000 28009KT P6SM SCT250
     FM230600 27005KT P6SM SCT250=

USA.gov is the U.S. government's official web portal to all federal, state and local government web resources and services.